createdAt,value
2022-12-11T00:03:44.343Z,100942.56
2022-12-11T00:08:47.856Z,100950.28
2022-12-11T00:13:52.154Z,100949.41
2022-12-11T00:18:55.060Z,100951.09
2022-12-11T00:23:57.895Z,100926.78
2022-12-11T00:29:03.778Z,100951.94
2022-12-11T00:34:06.631Z,100959.63
2022-12-11T00:39:09.492Z,100919.94
2022-12-11T00:44:13.775Z,100960.50
2022-12-11T00:49:16.680Z,100961.41
2022-12-11T00:54:19.704Z,100950.25
2022-12-11T00:59:23.965Z,100943.16
2022-12-11T01:04:27.836Z,100962.16
2022-12-11T01:09:48.135Z,100964.03
2022-12-11T01:14:52.390Z,100959.75
2022-12-11T01:19:55.340Z,100954.69
2022-12-11T01:24:59.166Z,100963.31
2022-12-11T01:30:03.437Z,100956.47
2022-12-11T01:35:07.676Z,100965.88
2022-12-11T01:40:13.201Z,100959.88
2022-12-11T01:45:41.036Z,100967.81
2022-12-11T01:50:46.736Z,100971.22
2022-12-11T01:55:50.778Z,100961.78
2022-12-11T02:00:55.152Z,100961.47
2022-12-11T02:06:00.602Z,100963.34
2022-12-11T02:11:07.918Z,100961.63
2022-12-11T02:16:18.702Z,100961.78
2022-12-11T02:21:24.779Z,100958.38
2022-12-11T02:26:52.100Z,100960.16
2022-12-11T02:31:59.442Z,100944.84
2022-12-11T02:37:07.058Z,100937.66
2022-12-11T02:42:11.137Z,100945.50
2022-12-11T02:47:16.571Z,100951.47
2022-12-11T02:52:22.255Z,100940.34
2022-12-11T02:57:28.715Z,100939.47
2022-12-11T03:02:33.469Z,100927.47
2022-12-11T03:07:38.532Z,100921.69
2022-12-11T03:12:46.136Z,100932.78
2022-12-11T03:18:00.312Z,100926.63
2022-12-11T03:23:11.129Z,100924.19
2022-12-11T03:28:16.283Z,100916.38
2022-12-11T03:33:24.504Z,100920.31
2022-12-11T03:38:31.341Z,100928.78
2022-12-11T03:43:34.506Z,100934.59
2022-12-11T03:48:40.574Z,100928.72
2022-12-11T03:53:43.976Z,100914.41
2022-12-11T03:58:46.795Z,100926.41
2022-12-11T04:03:51.128Z,100924.38
2022-12-11T04:08:54.071Z,100919.13
2022-12-11T04:14:10.894Z,100926.00
2022-12-11T04:19:32.736Z,100926.91
2022-12-11T04:24:35.604Z,100911.59
2022-12-11T04:29:38.544Z,100923.53
2022-12-11T04:34:42.804Z,100917.41
2022-12-11T04:39:45.662Z,100924.41
2022-12-11T04:44:48.469Z,100915.88
2022-12-11T04:49:52.752Z,100917.72
2022-12-11T04:54:56.424Z,100914.22
2022-12-11T04:59:59.984Z,100903.88
2022-12-11T05:05:05.500Z,100908.09
2022-12-11T05:10:09.864Z,100895.38
2022-12-11T05:15:12.914Z,100904.81
2022-12-11T05:20:17.774Z,100897.94
2022-12-11T05:25:20.747Z,100901.00
2022-12-11T05:30:23.535Z,100906.22
2022-12-11T05:35:27.767Z,100903.53
2022-12-11T05:40:30.640Z,100901.88
2022-12-11T05:45:33.675Z,100901.66
2022-12-11T05:50:38.003Z,100895.69
2022-12-11T05:55:43.590Z,100881.13
2022-12-11T06:00:46.681Z,100876.03
2022-12-11T06:05:50.905Z,100874.88
2022-12-11T06:10:53.733Z,100875.06
2022-12-11T06:15:56.511Z,100874.03
2022-12-11T06:21:00.678Z,100871.28
2022-12-11T06:26:04.684Z,100871.47
2022-12-11T06:31:08.037Z,100876.66
2022-12-11T06:36:14.468Z,100874.78
2022-12-11T06:41:18.041Z,100874.88
2022-12-11T06:46:21.386Z,100877.31
2022-12-11T06:51:25.644Z,100880.06
2022-12-11T06:56:28.455Z,100884.44
2022-12-11T07:01:32.373Z,100890.56
2022-12-11T07:06:36.572Z,100899.13
2022-12-11T07:11:39.464Z,100901.69
2022-12-11T07:16:42.375Z,100911.84
2022-12-11T07:21:46.800Z,100912.63
2022-12-11T07:26:49.730Z,100909.19
2022-12-11T07:31:52.642Z,100900.28
2022-12-11T07:36:57.031Z,100919.09
2022-12-11T07:41:59.967Z,100912.94
2022-12-11T07:47:02.865Z,100910.19
2022-12-11T07:52:07.223Z,100910.09
2022-12-11T07:57:13.962Z,100888.94
2022-12-11T08:02:17.319Z,100916.44
2022-12-11T08:07:21.522Z,100919.81
2022-12-11T08:12:24.386Z,100918.88
2022-12-11T08:17:30.224Z,100919.78
2022-12-11T08:22:37.005Z,100925.47
2022-12-11T08:27:39.857Z,100931.63
2022-12-11T08:32:42.806Z,100940.09
2022-12-11T08:37:47.445Z,100934.50
2022-12-11T08:42:50.257Z,100927.31
2022-12-11T08:47:53.971Z,100949.31
2022-12-11T08:52:58.881Z,100947.00
2022-12-11T08:58:01.823Z,100947.25
2022-12-11T09:03:08.484Z,100940.56
2022-12-11T09:08:16.868Z,100935.34
2022-12-11T09:13:19.801Z,100941.44
2022-12-11T09:18:22.609Z,100932.66
2022-12-11T09:23:27.029Z,100934.50
2022-12-11T09:28:29.902Z,100932.28
2022-12-11T09:33:32.757Z,100938.00
2022-12-11T09:38:37.275Z,100945.75
2022-12-11T09:43:43.783Z,100938.78
2022-12-11T09:48:48.758Z,100943.88
2022-12-11T09:53:54.265Z,100949.03
2022-12-11T09:59:04.194Z,100951.69
2022-12-11T10:04:41.035Z,100958.28
2022-12-11T10:09:50.437Z,100958.59
2022-12-11T10:15:05.123Z,100962.75
2022-12-11T10:20:18.934Z,100965.22
2022-12-11T10:25:26.870Z,100959.47
2022-12-11T10:30:34.815Z,100955.84
2022-12-11T10:35:40.632Z,100966.34
2022-12-11T10:40:47.116Z,100966.72
2022-12-11T10:45:53.809Z,100959.88
2022-12-11T10:51:00.473Z,100960.81
2022-12-11T10:56:04.787Z,100959.19
2022-12-11T11:01:10.291Z,100965.03
2022-12-11T11:06:17.947Z,100951.69
2022-12-11T11:11:28.724Z,100963.91
2022-12-11T11:16:31.865Z,100958.06
2022-12-11T11:21:36.039Z,100952.94
2022-12-11T11:27:11.566Z,100948.09
2022-12-11T11:32:15.891Z,100952.13
2022-12-11T11:37:27.986Z,100941.34
2022-12-11T11:42:40.360Z,100940.19
2022-12-11T11:47:50.695Z,100926.50
2022-12-11T11:52:58.862Z,100926.91
2022-12-11T11:58:08.511Z,100929.31
2022-12-11T12:03:13.610Z,100934.41
2022-12-11T12:08:24.994Z,100933.63
2022-12-11T12:13:50.136Z,100934.63
2022-12-11T12:19:00.104Z,100936.34
2022-12-11T12:24:11.086Z,100936.31
2022-12-11T12:29:40.130Z,100933.41
2022-12-11T12:34:53.419Z,100925.66
2022-12-11T12:40:03.039Z,100927.47
2022-12-11T12:45:12.264Z,100922.31
2022-12-11T12:50:18.626Z,100923.19
2022-12-11T12:55:24.400Z,100925.78
2022-12-11T13:00:30.624Z,100919.13
2022-12-11T13:05:34.599Z,100913.16
2022-12-11T13:10:39.329Z,100917.56
2022-12-11T13:15:44.403Z,100908.84
2022-12-11T13:20:51.056Z,100914.94
2022-12-11T13:25:55.744Z,100922.69
2022-12-11T13:31:04.334Z,100907.03
2022-12-11T13:36:27.935Z,100920.13
2022-12-11T13:41:31.619Z,100915.00
2022-12-11T13:46:38.629Z,100915.34
2022-12-11T13:51:41.872Z,100917.75
2022-12-11T13:57:01.420Z,100921.31
2022-12-11T14:02:15.614Z,100917.72
2022-12-11T14:07:22.205Z,100917.59
2022-12-11T14:12:25.206Z,100920.06
2022-12-11T14:17:30.759Z,100908.63
2022-12-11T14:22:33.901Z,100915.50
2022-12-11T14:27:36.738Z,100924.94
2022-12-11T14:32:44.298Z,100922.56
2022-12-11T14:37:47.274Z,100907.88
2022-12-11T14:42:58.600Z,100919.06
2022-12-11T14:48:08.463Z,100923.03
2022-12-11T14:53:15.494Z,100921.97
2022-12-11T14:58:21.516Z,100926.69
2022-12-11T15:03:31.590Z,100926.53
2022-12-11T15:08:36.917Z,100931.47
2022-12-11T15:13:52.608Z,100935.59
2022-12-11T15:18:58.858Z,100935.56
2022-12-11T15:24:04.318Z,100929.47
2022-12-11T15:29:21.071Z,100924.94
2022-12-11T15:34:25.439Z,100928.09
2022-12-11T15:39:28.460Z,100929.88
2022-12-11T15:44:31.335Z,100934.06
2022-12-11T15:49:35.580Z,100939.88
2022-12-11T15:54:38.576Z,100939.03
2022-12-11T15:59:41.523Z,100944.91
2022-12-11T16:04:45.678Z,100945.78
2022-12-11T16:09:49.001Z,100949.19
2022-12-11T16:14:51.938Z,100944.16
2022-12-11T16:19:56.173Z,100952.75
2022-12-11T16:24:59.007Z,100946.41
2022-12-11T16:30:01.843Z,100937.03
2022-12-11T16:35:06.709Z,100935.56
2022-12-11T16:40:11.190Z,100937.41
2022-12-11T16:45:16.164Z,100945.31
2022-12-11T16:50:20.824Z,100941.28
2022-12-11T16:55:23.671Z,100944.03
2022-12-11T17:00:26.668Z,100952.78
2022-12-11T17:05:30.908Z,100947.38
2022-12-11T17:10:33.810Z,100950.72
2022-12-11T17:15:40.941Z,100951.81
2022-12-11T17:20:45.865Z,100954.31
2022-12-11T17:25:49.593Z,100954.97
2022-12-11T17:30:52.990Z,100963.13
2022-12-11T17:35:58.286Z,100950.19
2022-12-11T17:41:01.738Z,100949.47
2022-12-11T17:46:05.159Z,100949.31
2022-12-11T17:51:10.576Z,100950.28
2022-12-11T17:56:13.667Z,100948.53
2022-12-11T18:01:16.640Z,100958.13
2022-12-11T18:06:22.936Z,100959.88
2022-12-11T18:11:25.747Z,100964.03
2022-12-11T18:16:31.378Z,100959.94
2022-12-11T18:21:40.417Z,100960.25
2022-12-11T18:26:43.826Z,100963.25
2022-12-11T18:31:46.709Z,100960.94
2022-12-11T18:36:50.988Z,100966.13
2022-12-11T18:42:16.494Z,100960.91
2022-12-11T18:47:17.195Z,100964.19
2022-12-11T18:52:21.433Z,100974.16
2022-12-11T18:57:24.299Z,100972.84
2022-12-11T19:02:27.273Z,100972.16
2022-12-11T19:07:31.500Z,100969.38
2022-12-11T19:12:34.653Z,100973.63
2022-12-11T19:17:37.913Z,100926.69
2022-12-11T19:22:42.140Z,100969.63
2022-12-11T19:27:47.569Z,100968.69
2022-12-11T19:32:50.569Z,100974.84
2022-12-11T19:37:54.766Z,100979.38
2022-12-11T19:42:57.618Z,100978.41
2022-12-11T19:48:00.512Z,100986.13
2022-12-11T19:53:05.142Z,100983.38
2022-12-11T19:58:07.992Z,100978.41
2022-12-11T20:03:10.854Z,100989.66
2022-12-11T20:08:42.851Z,100984.34
2022-12-11T20:13:40.547Z,100987.09
2022-12-11T20:18:43.573Z,100991.78
2022-12-11T20:23:48.221Z,100973.34
2022-12-11T20:28:52.850Z,100988.84
2022-12-11T20:33:57.133Z,100990.41
2022-12-11T20:39:01.429Z,100992.00
2022-12-11T20:44:04.553Z,100991.81
2022-12-11T20:49:12.749Z,101005.03
2022-12-11T20:54:17.400Z,101011.84
2022-12-11T20:59:20.255Z,101008.94
2022-12-11T21:04:23.123Z,101009.09
2022-12-11T21:09:27.980Z,101006.50
2022-12-11T21:14:31.629Z,101003.84
2022-12-11T21:19:34.441Z,101015.75
2022-12-11T21:24:38.981Z,101012.72
2022-12-11T21:29:41.813Z,101020.47
2022-12-11T21:34:44.707Z,101007.75
2022-12-11T21:39:48.922Z,101022.16
2022-12-11T21:50:14.681Z,101037.06
2022-12-11T21:55:19.364Z,101038.47
2022-12-11T22:00:22.424Z,101041.63
2022-12-11T22:05:25.388Z,101045.25
2022-12-11T22:10:30.440Z,101039.22
2022-12-11T22:15:33.233Z,101044.47
2022-12-11T22:20:36.035Z,101049.41
2022-12-11T22:25:40.810Z,101058.91
2022-12-11T22:30:44.357Z,101061.81
2022-12-11T22:35:47.192Z,101054.44
2022-12-11T22:40:51.752Z,101055.56
2022-12-11T22:45:55.107Z,101068.09
2022-12-11T22:50:58.073Z,101069.72
2022-12-11T22:56:06.731Z,101068.34
2022-12-11T23:01:11.776Z,101070.38
2022-12-11T23:06:17.147Z,101074.31
2022-12-11T23:11:24.048Z,101073.44
2022-12-11T23:16:27.542Z,101069.72
2022-12-11T23:21:30.971Z,101067.34
2022-12-11T23:26:35.205Z,101074.03
2022-12-11T23:31:38.073Z,101072.25
2022-12-11T23:36:40.870Z,101066.25
2022-12-11T23:41:45.012Z,101031.09
2022-12-11T23:46:47.941Z,101069.19
2022-12-11T23:51:50.821Z,101062.59
2022-12-11T23:56:55.125Z,101054.34
